Time;durP1;ratioP1;P1;durP2;ratioP2;P2;SDS_P1;SDS_P2;PMS_P1;PMS_P2;Temp;Humidity;BMP_temperature;BMP_pressure;BME280_temperature;BME280_humidity;BME280_pressure;Samples;Min_cycle;Max_cycle;Signal;HPM_P1;HPM_P2
2023/08/05 00:02:24;;;;;;;3.43;3.13;;;14.70;99.90;;;;;;8399826;28;20594;-67
2023/08/05 00:06:25;;;;;;;3.40;3.10;;;14.70;99.90;;;;;;8394045;28;20222;-66
2023/08/05 00:10:26;;;;;;;3.53;3.17;;;14.80;99.90;;;;;;8400046;28;20276;-66
2023/08/05 00:14:27;;;;;;;3.73;3.43;;;14.90;99.90;;;;;;8397045;28;20220;-66
2023/08/05 00:18:28;;;;;;;3.70;3.30;;;15.00;99.90;;;;;;8396320;28;20263;-66
2023/08/05 00:22:29;;;;;;;4.07;3.67;;;15.10;99.90;;;;;;8393498;28;20187;-65
2023/08/05 00:26:29;;;;;;;3.23;2.93;;;15.20;99.90;;;;;;8396646;28;20303;-66
2023/08/05 00:30:30;;;;;;;4.20;3.03;;;15.30;99.90;;;;;;8398193;28;20499;-65
2023/08/05 00:34:31;;;;;;;4.43;3.40;;;15.40;99.90;;;;;;8399563;28;20209;-66
2023/08/05 00:38:32;;;;;;;3.43;3.00;;;15.40;99.90;;;;;;8392762;28;20208;-66
2023/08/05 00:42:33;;;;;;;3.43;3.13;;;15.30;99.90;;;;;;8395710;28;20250;-66
2023/08/05 00:46:34;;;;;;;4.27;3.87;;;15.30;99.90;;;;;;8397264;28;20201;-66
2023/08/05 00:50:35;;;;;;;4.03;3.43;;;15.20;99.90;;;;;;8401394;28;20196;-66
2023/08/05 00:54:36;;;;;;;3.93;3.63;;;15.10;99.90;;;;;;8401390;28;20642;-66
2023/08/05 00:58:38;;;;;;;3.80;3.43;;;15.00;99.90;;;;;;8394560;28;20212;-66
2023/08/05 01:02:39;;;;;;;4.00;3.70;;;15.00;99.90;;;;;;8395698;28;20192;-64
2023/08/05 01:06:40;;;;;;;4.30;3.90;;;14.90;99.90;;;;;;8395397;28;20204;-65
2023/08/05 01:10:42;;;;;;;4.33;3.53;;;14.90;99.90;;;;;;8397388;28;20303;-65
2023/08/05 01:14:43;;;;;;;3.90;3.33;;;14.80;1.00;;;;;;8395179;28;20209;-64
2023/08/05 01:18:44;;;;;;;3.87;3.57;;;14.80;1.00;;;;;;8393134;28;20200;-66
2023/08/05 01:22:51;;;;;;;3.73;3.43;;;14.70;1.00;;;;;;8392064;28;20214;-65
2023/08/05 01:26:54;;;;;;;3.77;3.47;;;14.70;1.00;;;;;;8394191;28;20220;-66
2023/08/05 01:30:57;;;;;;;3.93;3.63;;;14.70;1.00;;;;;;8391637;28;20185;-65
2023/08/05 01:34:58;;;;;;;4.10;3.70;;;14.60;1.80;;;;;;8388753;28;20244;-66
2023/08/05 01:38:59;;;;;;;4.47;3.80;;;14.70;42.70;;;;;;8384990;28;20804;-65
2023/08/05 01:43:00;;;;;;;5.53;4.53;;;14.70;43.60;;;;;;8387690;28;20193;-64
2023/08/05 01:47:01;;;;;;;5.37;3.87;;;14.70;32.70;;;;;;8385930;28;20193;-64
2023/08/05 01:51:01;;;;;;;4.40;4.00;;;14.80;14.30;;;;;;8393346;28;20185;-64
2023/08/05 01:55:02;;;;;;;4.70;4.30;;;14.80;20.70;;;;;;8382539;28;20220;-65
2023/08/05 01:59:03;;;;;;;4.90;4.50;;;14.70;26.40;;;;;;8387100;28;20301;-66
2023/08/05 02:03:04;;;;;;;4.10;3.80;;;14.60;49.90;;;;;;8387556;28;20402;-66
2023/08/05 02:07:05;;;;;;;4.20;3.80;;;14.60;67.60;;;;;;8383960;28;20215;-65
2023/08/05 02:11:06;;;;;;;4.20;3.90;;;14.50;99.90;;;;;;8387775;28;20212;-65
2023/08/05 02:15:07;;;;;;;5.93;5.40;;;14.60;99.90;;;;;;8384679;28;20205;-67
2023/08/05 02:19:08;;;;;;;5.80;5.23;;;14.60;99.90;;;;;;8388286;28;20189;-66
2023/08/05 02:23:09;;;;;;;5.63;5.10;;;14.60;99.90;;;;;;8391376;28;20272;-65
2023/08/05 02:27:10;;;;;;;5.93;5.43;;;14.50;99.90;;;;;;8391037;28;20189;-66
2023/08/05 02:31:10;;;;;;;5.60;5.10;;;14.50;99.90;;;;;;8395479;28;20275;-64
2023/08/05 02:35:11;;;;;;;6.13;5.63;;;14.50;99.90;;;;;;8390811;28;20212;-62
2023/08/05 02:39:12;;;;;;;5.53;5.00;;;14.60;99.90;;;;;;8395049;28;20189;-62
2023/08/05 02:43:13;;;;;;;5.57;5.07;;;14.70;99.90;;;;;;8393001;28;20201;-63
2023/08/05 02:47:14;;;;;;;5.73;5.23;;;14.70;17.90;;;;;;8394743;28;20293;-62
2023/08/05 02:51:14;;;;;;;6.43;5.40;;;14.80;1.00;;;;;;8396039;28;20649;-64
2023/08/05 02:55:15;;;;;;;5.30;4.80;;;14.80;1.00;;;;;;8399076;28;20212;-63
2023/08/05 02:59:16;;;;;;;8.37;5.20;;;14.80;1.00;;;;;;8394639;28;20192;-64
2023/08/05 03:03:17;;;;;;;5.20;4.73;;;14.80;1.00;;;;;;8394225;28;20266;-64
2023/08/05 03:07:18;;;;;;;5.50;4.60;;;14.80;1.00;;;;;;8393484;28;20260;-61
2023/08/05 03:11:19;;;;;;;5.40;4.90;;;14.90;1.00;;;;;;8393926;28;20215;-61
2023/08/05 03:15:20;;;;;;;4.93;4.53;;;14.80;1.00;;;;;;8389080;28;20232;-64
2023/08/05 03:19:20;;;;;;;5.03;4.53;;;14.90;1.00;;;;;;8390843;28;20273;-61
2023/08/05 03:23:21;;;;;;;5.37;4.53;;;14.90;1.00;;;;;;8391456;28;20189;-65
2023/08/05 03:27:22;;;;;;;5.07;4.57;;;15.00;1.00;;;;;;8395602;28;20188;-63
2023/08/05 03:31:23;;;;;;;4.83;4.30;;;15.10;1.00;;;;;;8397811;28;20442;-61
2023/08/05 03:35:23;;;;;;;6.87;5.33;;;15.10;1.00;;;;;;8389820;28;20209;-63
2023/08/05 03:39:24;;;;;;;5.37;4.93;;;15.20;1.00;;;;;;8387701;28;20311;-67
2023/08/05 03:43:25;;;;;;;5.93;5.03;;;15.20;1.00;;;;;;8389924;28;21626;-66
2023/08/05 03:47:26;;;;;;;5.93;4.50;;;15.30;99.90;;;;;;8402691;27;20312;-66
2023/08/05 03:51:27;;;;;;;5.33;4.90;;;15.30;99.90;;;;;;8393093;28;20388;-67
2023/08/05 03:55:28;;;;;;;8.10;5.27;;;15.30;99.90;;;;;;8397421;28;20243;-65
2023/08/05 03:59:28;;;;;;;5.10;4.70;;;15.10;99.90;;;;;;8398376;28;20192;-65
2023/08/05 04:03:30;;;;;;;6.10;5.50;;;15.10;99.90;;;;;;8398242;28;20181;-69
2023/08/05 04:07:31;;;;;;;6.27;5.67;;;15.10;1.00;;;;;;8396117;28;20189;-68
2023/08/05 04:11:32;;;;;;;7.30;6.03;;;15.20;1.00;;;;;;8394226;28;20204;-66
2023/08/05 04:15:35;;;;;;;6.07;5.47;;;15.20;99.90;;;;;;8396989;28;20269;-66
2023/08/05 04:19:37;;;;;;;8.53;6.27;;;15.20;99.90;;;;;;8397949;28;20461;-67
2023/08/05 04:23:39;;;;;;;6.93;6.30;;;15.30;99.90;;;;;;8397266;28;20186;-67
2023/08/05 04:27:40;;;;;;;7.57;6.20;;;15.40;99.90;;;;;;8398482;28;20188;-66
2023/08/05 04:31:42;;;;;;;6.97;6.00;;;15.60;99.90;;;;;;8395454;28;20195;-67
2023/08/05 04:35:47;;;;;;;6.37;5.63;;;15.80;99.90;;;;;;8396359;28;20205;-66
2023/08/05 04:39:49;;;;;;;7.10;6.40;;;15.90;99.90;;;;;;8394375;28;20299;-68
2023/08/05 04:43:50;;;;;;;7.33;5.83;;;16.00;99.90;;;;;;8392773;28;20283;-67
2023/08/05 04:47:51;;;;;;;5.53;5.03;;;16.10;99.90;;;;;;8391417;28;20181;-67
2023/08/05 04:51:52;;;;;;;5.90;5.30;;;16.20;99.90;;;;;;8392920;28;20185;-61
2023/08/05 04:55:53;;;;;;;9.53;5.40;;;16.30;99.90;;;;;;8388470;28;20238;-66
2023/08/05 04:59:53;;;;;;;7.63;5.20;;;16.40;99.90;;;;;;8391496;28;20191;-66
2023/08/05 05:03:54;;;;;;;8.17;5.47;;;16.50;73.50;;;;;;8387641;28;20446;-66
2023/08/05 05:07:55;;;;;;;5.00;4.50;;;16.70;24.60;;;;;;8386716;28;20195;-65
2023/08/05 05:11:56;;;;;;;5.13;4.63;;;16.80;3.00;;;;;;8391153;28;20214;-66
2023/08/05 05:15:57;;;;;;;6.70;4.53;;;16.80;1.00;;;;;;8383829;28;20216;-65
2023/08/05 05:19:58;;;;;;;5.53;5.00;;;16.90;1.00;;;;;;8389651;28;20185;-65
2023/08/05 05:23:59;;;;;;;7.03;4.70;;;17.20;1.00;;;;;;8385436;28;20193;-66
2023/08/05 05:28:00;;;;;;;5.10;4.60;;;17.20;1.00;;;;;;8396143;28;20207;-64
2023/08/05 05:32:00;;;;;;;6.17;5.03;;;17.20;1.00;;;;;;8391754;28;20180;-66
2023/08/05 05:36:01;;;;;;;5.50;4.70;;;17.10;1.00;;;;;;8389740;28;20220;-65
2023/08/05 05:40:03;;;;;;;5.47;4.50;;;17.20;1.00;;;;;;8383512;28;20187;-66
2023/08/05 05:44:04;;;;;;;6.50;4.70;;;17.30;1.00;;;;;;8389661;28;20205;-66
2023/08/05 05:48:04;;;;;;;6.67;5.50;;;17.40;1.00;;;;;;8392845;28;20192;-66
2023/08/05 05:52:07;;;;;;;5.50;4.93;;;17.50;1.00;;;;;;8383004;28;20261;-66
2023/08/05 05:56:08;;;;;;;6.53;4.53;;;17.50;1.00;;;;;;8385829;28;20228;-66
2023/08/05 06:00:09;;;;;;;6.43;4.90;;;17.50;1.00;;;;;;8392857;28;20189;-66
2023/08/05 06:04:10;;;;;;;5.90;4.63;;;17.40;1.00;;;;;;8392443;28;20202;-66
2023/08/05 06:08:11;;;;;;;6.53;4.30;;;17.40;1.00;;;;;;8396300;28;20223;-66
2023/08/05 06:12:12;;;;;;;4.30;3.90;;;17.50;1.00;;;;;;8390740;28;20270;-65
2023/08/05 06:16:13;;;;;;;6.17;4.10;;;17.60;1.00;;;;;;8390673;28;20269;-65
2023/08/05 06:20:14;;;;;;;5.37;4.40;;;17.80;1.00;;;;;;8391503;28;20184;-64
2023/08/05 06:24:14;;;;;;;5.47;4.07;;;18.00;1.00;;;;;;8396259;28;20191;-67
2023/08/05 06:28:15;;;;;;;4.07;3.67;;;18.20;1.00;;;;;;8390193;28;20748;-66
2023/08/05 06:32:16;;;;;;;5.57;3.83;;;18.30;1.00;;;;;;8391713;28;20185;-64
2023/08/05 06:36:17;;;;;;;4.77;3.27;;;18.40;1.00;;;;;;8394791;28;20263;-64
2023/08/05 06:40:18;;;;;;;6.23;3.80;;;18.40;1.00;;;;;;8399283;28;20184;-66
2023/08/05 06:44:19;;;;;;;5.03;3.67;;;18.40;1.00;;;;;;8389888;28;20227;-65
2023/08/05 06:48:20;;;;;;;3.70;3.27;;;18.40;1.00;;;;;;8393334;28;20193;-65
2023/08/05 06:52:21;;;;;;;4.93;3.33;;;18.30;1.00;;;;;;8390988;28;20485;-66
2023/08/05 06:56:22;;;;;;;4.57;3.90;;;18.30;1.00;;;;;;8384309;28;20880;-66
2023/08/05 07:00:23;;;;;;;5.40;4.10;;;18.30;1.00;;;;;;8388253;28;20506;-66
2023/08/05 07:04:23;;;;;;;8.87;4.10;;;18.30;1.00;;;;;;8396278;28;20257;-66
2023/08/05 07:08:25;;;;;;;6.77;4.13;;;18.20;1.00;;;;;;8393689;28;20209;-67
2023/08/05 07:12:26;;;;;;;6.87;4.60;;;18.00;1.00;;;;;;8396460;28;20355;-66
2023/08/05 07:16:27;;;;;;;5.10;4.63;;;17.80;16.40;;;;;;8396018;28;20618;-66
2023/08/05 07:20:28;;;;;;;5.03;4.47;;;17.60;99.40;;;;;;8393980;28;20192;-66
2023/08/05 07:24:29;;;;;;;6.37;5.27;;;17.40;99.90;;;;;;8395583;28;20184;-66
2023/08/05 07:28:30;;;;;;;6.77;5.40;;;17.30;99.90;;;;;;8395224;28;20189;-67
2023/08/05 07:32:31;;;;;;;6.83;6.00;;;17.20;99.90;;;;;;8401982;28;20199;-67
2023/08/05 07:36:31;;;;;;;6.50;5.73;;;17.20;1.00;;;;;;8396008;28;20218;-67
2023/08/05 07:40:33;;;;;;;5.37;4.90;;;17.30;1.00;;;;;;8404166;28;20195;-65
2023/08/05 07:44:36;;;;;;;7.20;5.20;;;17.40;99.90;;;;;;8398799;28;21109;-65
2023/08/05 07:48:39;;;;;;;4.80;4.23;;;17.60;99.90;;;;;;8399333;28;20271;-67
2023/08/05 07:52:40;;;;;;;4.20;3.80;;;17.70;99.90;;;;;;8395777;28;20188;-67
2023/08/05 07:56:45;;;;;;;6.73;5.30;;;17.80;99.90;;;;;;8393190;28;20327;-67
2023/08/05 08:00:47;;;;;;;4.90;4.23;;;17.90;99.90;;;;;;8393207;28;20189;-67
2023/08/05 08:04:49;;;;;;;7.63;4.33;;;17.90;99.90;;;;;;8394871;28;20180;-66
2023/08/05 08:08:58;;;;;;;5.93;4.20;;;17.90;99.90;;;;;;8381305;28;20204;-67
2023/08/05 08:13:01;;;;;;;5.93;5.00;;;17.90;99.90;;;;;;8391796;28;20185;-66
2023/08/05 08:17:02;;;;;;;8.40;4.93;;;17.90;1.00;;;;;;8388070;28;20208;-67
2023/08/05 08:21:07;;;;;;;5.80;4.77;;;17.80;99.90;;;;;;8398745;28;20188;-67
2023/08/05 08:25:08;;;;;;;6.47;4.70;;;17.80;1.00;;;;;;8392396;28;20185;-66
2023/08/05 08:29:09;;;;;;;6.00;5.03;;;17.80;99.90;;;;;;8397848;28;20274;-67
2023/08/05 08:33:10;;;;;;;6.40;5.07;;;17.80;99.90;;;;;;8394202;28;20200;-67
2023/08/05 08:37:12;;;;;;;8.43;5.30;;;17.80;99.90;;;;;;8394732;28;20231;-65
2023/08/05 08:41:12;;;;;;;6.87;5.43;;;17.80;99.90;;;;;;8396339;28;20311;-67
2023/08/05 08:45:15;;;;;;;7.10;5.57;;;17.90;99.90;;;;;;8396409;28;20200;-65
2023/08/05 08:49:17;;;;;;;7.47;5.70;;;17.90;1.00;;;;;;8396026;28;20196;-66
2023/08/05 08:53:20;;;;;;;6.23;5.33;;;18.00;1.00;;;;;;8391938;27;20192;-66
2023/08/05 08:57:22;;;;;;;7.03;6.30;;;18.00;1.00;;;;;;8395570;28;20682;-65
2023/08/05 09:01:24;;;;;;;6.17;5.00;;;18.20;99.90;;;;;;8392249;28;20192;-66
2023/08/05 09:05:28;;;;;;;9.97;5.70;;;18.40;99.90;;;;;;8392787;28;20181;-66
2023/08/05 09:09:34;;;;;;;6.97;5.73;;;18.50;99.90;;;;;;8389712;28;20200;-65
2023/08/05 09:13:35;;;;;;;8.10;5.30;;;18.70;99.90;;;;;;8389504;28;20439;-66
2023/08/05 09:17:39;;;;;;;6.47;5.10;;;18.80;99.90;;;;;;8391980;28;20216;-66
2023/08/05 09:21:40;;;;;;;7.50;5.20;;;19.20;99.90;;;;;;8389184;28;20194;-66
2023/08/05 09:25:45;;;;;;;5.47;4.77;;;19.40;99.90;;;;;;8389015;28;20416;-67
2023/08/05 09:29:46;;;;;;;5.07;4.57;;;19.50;96.50;;;;;;8390615;28;20185;-65
2023/08/05 09:33:47;;;;;;;7.00;4.63;;;19.40;38.10;;;;;;8393010;28;20483;-65
2023/08/05 09:37:49;;;;;;;6.37;4.87;;;19.10;1.00;;;;;;8396124;28;20209;-66
2023/08/05 09:41:54;;;;;;;5.80;4.63;;;18.80;95.70;;;;;;8392893;28;20233;-64
2023/08/05 09:45:55;;;;;;;6.57;5.20;;;18.70;99.90;;;;;;8392551;28;20203;-67
2023/08/05 09:50:03;;;;;;;9.07;5.97;;;18.50;99.90;;;;;;8391092;28;20275;-66
2023/08/05 09:54:08;;;;;;;8.00;5.43;;;18.50;99.90;;;;;;8409257;27;20192;-66
2023/08/05 09:58:10;;;;;;;8.10;6.23;;;18.40;99.90;;;;;;8392006;28;20192;-66
2023/08/05 10:02:12;;;;;;;6.33;5.73;;;18.30;99.90;;;;;;8392980;28;20192;-63
2023/08/05 10:06:15;;;;;;;8.37;6.63;;;18.30;99.90;;;;;;8390726;28;20184;-64
2023/08/05 10:10:16;;;;;;;9.93;6.70;;;18.30;1.00;;;;;;8395893;28;20261;-63
2023/08/05 10:14:18;;;;;;;7.33;5.63;;;18.20;1.00;;;;;;8392782;28;20188;-63
2023/08/05 10:18:20;;;;;;;7.60;6.90;;;18.20;99.90;;;;;;8388909;28;20200;-65
2023/08/05 10:22:23;;;;;;;7.07;6.03;;;18.10;1.00;;;;;;8394542;28;20280;-66
2023/08/05 10:26:42;;;;;;;8.03;6.30;;;18.20;1.00;;;;;;8391518;28;20267;-63
2023/08/05 10:30:43;;;;;;;7.27;5.90;;;18.30;1.00;;;;;;8391856;28;20182;-64
2023/08/05 10:35:23;;;;;;;8.07;6.17;;;18.40;6.00;;;;;;8393026;28;20204;-64
2023/08/05 10:39:39;;;;;;;7.50;6.30;;;18.40;1.00;;;;;;8396155;28;20185;-64
2023/08/05 10:43:43;;;;;;;7.90;6.60;;;18.40;1.00;;;;;;8398243;28;20192;-66
2023/08/05 10:47:48;;;;;;;8.97;6.47;;;18.50;1.00;;;;;;8394274;28;20268;-65
2023/08/05 10:51:50;;;;;;;6.40;5.80;;;18.50;18.50;;;;;;8401802;28;20241;-65
2023/08/05 10:55:55;;;;;;;8.97;7.07;;;18.50;1.00;;;;;;8396781;28;20212;-63
2023/08/05 11:00:03;;;;;;;12.47;7.23;;;18.60;1.00;;;;;;8397848;28;20215;-66
2023/08/05 11:04:30;;;;;;;7.07;6.37;;;18.60;1.00;;;;;;8394505;28;20199;-65
2023/08/05 11:08:33;;;;;;;8.07;6.33;;;18.70;1.00;;;;;;8397437;28;20200;-65
2023/08/05 11:12:36;;;;;;;7.50;6.70;;;18.70;1.00;;;;;;8400241;28;20307;-65
2023/08/05 11:16:45;;;;;;;9.33;6.43;;;18.70;1.00;;;;;;8398204;28;20209;-65
2023/08/05 11:20:47;;;;;;;7.90;5.70;;;18.60;99.90;;;;;;8393738;28;20188;-65
2023/08/05 11:24:58;;;;;;;6.50;5.90;;;18.60;1.00;;;;;;8391320;28;20189;-66
2023/08/05 11:29:01;;;;;;;6.90;6.20;;;18.60;22.90;;;;;;8391240;28;20182;-66
2023/08/05 11:33:02;;;;;;;9.37;5.77;;;18.50;8.00;;;;;;8392191;28;20189;-66
2023/08/05 11:37:03;;;;;;;6.80;5.87;;;18.50;1.00;;;;;;8383922;28;20208;-66
2023/08/05 11:41:04;;;;;;;6.97;6.23;;;18.30;1.00;;;;;;8405079;27;20385;-66
2023/08/05 11:45:06;;;;;;;8.53;7.07;;;18.40;99.90;;;;;;8392871;28;20307;-65
2023/08/05 11:49:14;;;;;;;10.10;6.67;;;18.40;99.90;;;;;;8393018;28;20181;-65
2023/08/05 11:53:15;;;;;;;7.83;6.27;;;18.40;1.00;;;;;;8394777;28;20216;-65
2023/08/05 11:57:19;;;;;;;8.10;6.07;;;18.50;99.90;;;;;;8392936;28;20215;-64
2023/08/05 12:01:20;;;;;;;5.93;5.33;;;18.60;99.90;;;;;;8396396;28;20180;-65
2023/08/05 12:05:24;;;;;;;6.27;5.10;;;18.80;99.90;;;;;;8385910;28;20181;-65
2023/08/05 12:09:25;;;;;;;5.77;5.17;;;18.90;1.00;;;;;;8393376;28;20231;-66
2023/08/05 12:13:33;;;;;;;7.23;6.53;;;18.80;1.00;;;;;;8396263;28;20185;-66
2023/08/05 12:17:37;;;;;;;6.50;5.90;;;18.70;99.90;;;;;;8396063;28;20215;-64
2023/08/05 12:21:38;;;;;;;8.60;6.70;;;18.60;1.00;;;;;;8400656;28;20205;-64
2023/08/05 12:25:39;;;;;;;8.47;6.10;;;18.60;61.50;;;;;;8391624;28;20188;-64
2023/08/05 12:29:40;;;;;;;7.57;6.43;;;18.60;99.90;;;;;;8395735;28;20188;-65
2023/08/05 12:33:41;;;;;;;8.27;6.43;;;18.60;28.60;;;;;;8394879;28;20622;-66
2023/08/05 12:37:42;;;;;;;6.23;5.63;;;18.60;99.90;;;;;;8388467;28;20213;-64
2023/08/05 12:41:43;;;;;;;6.50;5.43;;;18.70;1.00;;;;;;8395423;28;20188;-65
2023/08/05 12:45:43;;;;;;;5.30;4.80;;;18.60;99.90;;;;;;8393792;28;20204;-65
2023/08/05 12:49:45;;;;;;;5.13;4.60;;;18.40;1.00;;;;;;8393772;28;20180;-64
2023/08/05 12:53:45;;;;;;;5.53;4.93;;;18.30;1.00;;;;;;8396205;28;20207;-66
2023/08/05 12:57:46;;;;;;;5.67;5.17;;;18.30;1.00;;;;;;8389473;28;20244;-67
2023/08/05 13:01:47;;;;;;;5.73;4.93;;;18.20;98.00;;;;;;8388662;28;20177;-66
2023/08/05 13:05:48;;;;;;;6.83;5.37;;;18.10;99.90;;;;;;8392426;28;20264;-65
2023/08/05 13:09:48;;;;;;;6.73;6.07;;;18.10;99.90;;;;;;8392967;28;20258;-66
2023/08/05 13:13:49;;;;;;;8.23;5.83;;;18.00;58.40;;;;;;8388654;28;20418;-63
2023/08/05 13:17:50;;;;;;;7.60;6.10;;;18.00;1.00;;;;;;8394481;28;20216;-67
2023/08/05 13:21:51;;;;;;;6.13;5.53;;;18.00;1.00;;;;;;8391085;28;20180;-66
2023/08/05 13:25:52;;;;;;;6.70;5.77;;;18.00;98.90;;;;;;8397600;28;20191;-65
2023/08/05 13:29:53;;;;;;;6.50;5.00;;;18.00;99.90;;;;;;8399028;28;20181;-64
2023/08/05 13:33:54;;;;;;;6.20;5.60;;;18.10;1.00;;;;;;8391298;28;20192;-63
2023/08/05 13:37:54;;;;;;;5.80;5.20;;;18.00;1.00;;;;;;8397121;28;20204;-64
2023/08/05 13:41:59;;;;;;;6.67;5.53;;;18.00;2.60;;;;;;8397021;28;20181;-66
2023/08/05 13:46:03;;;;;;;11.73;6.10;;;18.00;1.00;;;;;;8393377;28;20217;-66
2023/08/05 13:50:04;;;;;;;5.77;5.23;;;18.00;1.00;;;;;;8389824;28;20184;-67
2023/08/05 13:54:06;;;;;;;6.37;5.20;;;18.10;1.00;;;;;;8386777;28;20189;-68
2023/08/05 13:58:06;;;;;;;5.70;5.20;;;18.10;99.90;;;;;;8398448;28;20208;-67
2023/08/05 14:02:07;;;;;;;5.70;5.10;;;18.10;1.00;;;;;;8397325;28;20537;-69
2023/08/05 14:06:08;;;;;;;8.57;6.17;;;18.10;99.90;;;;;;8398347;28;20184;-67
2023/08/05 14:10:09;;;;;;;6.53;5.93;;;18.00;1.00;;;;;;8392817;28;20209;-66
2023/08/05 14:14:10;;;;;;;9.10;6.73;;;17.90;99.90;;;;;;8404895;28;20183;-67
2023/08/05 14:18:11;;;;;;;7.37;6.73;;;17.80;1.00;;;;;;8404061;28;20588;-67
2023/08/05 14:22:12;;;;;;;8.37;7.37;;;17.80;99.90;;;;;;8402668;28;20192;-67
2023/08/05 14:26:13;;;;;;;7.93;7.00;;;17.70;1.00;;;;;;8399525;28;20483;-64
2023/08/05 14:30:15;;;;;;;7.30;6.50;;;17.60;99.90;;;;;;8396473;28;20268;-67
2023/08/05 14:34:16;;;;;;;24.93;19.97;;;17.60;99.90;;;;;;8397960;28;20199;-63
2023/08/05 14:38:18;;;;;;;12.10;8.20;;;17.60;99.90;;;;;;8399766;28;20295;-63
2023/08/05 14:42:19;;;;;;;23.07;13.80;;;17.50;1.00;;;;;;8398815;28;20212;-63
2023/08/05 14:46:20;;;;;;;10.40;8.00;;;17.60;1.00;;;;;;8399064;28;20201;-66
2023/08/05 14:50:21;;;;;;;4.57;4.10;;;17.60;99.90;;;;;;8400643;28;20413;-65
2023/08/05 14:54:23;;;;;;;4.20;3.80;;;17.60;99.90;;;;;;8393375;28;20188;-63
2023/08/05 14:58:24;;;;;;;6.23;4.37;;;17.60;1.00;;;;;;8402818;28;20184;-64
2023/08/05 15:02:25;;;;;;;8.07;5.57;;;17.50;1.00;;;;;;8397386;28;20241;-65
2023/08/05 15:06:26;;;;;;;9.00;4.60;;;17.50;1.00;;;;;;8398611;28;20181;-64
2023/08/05 15:10:27;;;;;;;6.93;3.60;;;17.50;1.00;;;;;;8403147;28;20211;-65
2023/08/05 15:14:28;;;;;;;4.53;3.80;;;17.50;1.00;;;;;;8393852;28;20210;-67
2023/08/05 15:18:31;;;;;;;7.00;4.60;;;17.50;1.00;;;;;;8394844;28;20358;-67
2023/08/05 15:22:32;;;;;;;6.97;4.00;;;17.60;1.00;;;;;;8397660;28;20214;-64
2023/08/05 15:26:33;;;;;;;5.53;4.13;;;17.60;99.90;;;;;;8393560;28;20196;-66
2023/08/05 15:30:38;;;;;;;10.67;9.00;;;17.60;99.90;;;;;;8394148;28;20185;-65
2023/08/05 15:34:38;;;;;;;17.10;15.37;;;17.60;99.90;;;;;;8389311;28;20220;-66
2023/08/05 15:38:39;;;;;;;6.43;5.77;;;17.60;99.90;;;;;;8392695;28;20290;-63
2023/08/05 15:42:40;;;;;;;9.27;8.30;;;17.60;99.90;;;;;;8389133;28;20185;-66
2023/08/05 15:46:41;;;;;;;9.87;8.70;;;17.50;99.90;;;;;;8379856;28;20195;-65
2023/08/05 15:50:41;;;;;;;11.97;7.20;;;17.50;99.90;;;;;;8389060;28;20264;-64
2023/08/05 15:54:42;;;;;;;12.03;9.00;;;17.40;99.90;;;;;;8392432;28;20267;-63
2023/08/05 15:58:43;;;;;;;10.53;7.20;;;17.40;99.90;;;;;;8389358;28;20264;-64
2023/08/05 16:02:44;;;;;;;9.43;6.50;;;17.30;1.00;;;;;;8387420;28;20184;-65
2023/08/05 16:06:45;;;;;;;6.90;5.90;;;17.30;1.00;;;;;;8392315;28;20192;-64
2023/08/05 16:10:46;;;;;;;11.50;8.17;;;17.30;99.90;;;;;;8392122;28;20212;-66
2023/08/05 16:14:51;;;;;;;8.27;7.37;;;17.30;28.40;;;;;;8389149;28;20254;-65
2023/08/05 16:18:51;;;;;;;8.40;7.43;;;17.20;99.90;;;;;;8387601;28;20219;-66
2023/08/05 16:22:52;;;;;;;8.70;6.57;;;17.20;99.90;;;;;;8392939;28;20177;-65
2023/08/05 16:26:53;;;;;;;7.57;5.23;;;17.20;99.90;;;;;;8396064;28;20185;-65
2023/08/05 16:30:54;;;;;;;6.90;5.63;;;17.20;99.90;;;;;;8387536;28;20655;-65
2023/08/05 16:34:55;;;;;;;6.30;5.70;;;17.20;1.00;;;;;;8391407;28;20327;-67
2023/08/05 16:38:55;;;;;;;7.07;5.93;;;17.10;1.00;;;;;;8390595;28;20188;-66
2023/08/05 16:42:56;;;;;;;6.20;5.60;;;17.10;1.00;;;;;;8394894;28;20197;-65
2023/08/05 16:46:57;;;;;;;6.33;5.77;;;17.00;1.00;;;;;;8403505;27;20292;-65
2023/08/05 16:50:58;;;;;;;6.80;6.03;;;17.00;20.40;;;;;;8388615;28;20912;-65
2023/08/05 16:54:58;;;;;;;8.97;8.10;;;17.00;99.90;;;;;;8390152;28;20869;-65
2023/08/05 16:58:59;;;;;;;8.57;7.43;;;17.00;99.90;;;;;;8391024;28;20180;-66
2023/08/05 17:03:00;;;;;;;6.87;6.27;;;16.90;99.90;;;;;;8385230;28;20197;-66
2023/08/05 17:07:01;;;;;;;6.10;5.30;;;16.90;1.00;;;;;;8388337;28;20184;-66
2023/08/05 17:11:02;;;;;;;7.40;6.53;;;16.80;99.90;;;;;;8388515;28;20549;-65
2023/08/05 17:15:03;;;;;;;7.00;6.23;;;16.80;1.00;;;;;;8388520;28;20315;-66
2023/08/05 17:19:04;;;;;;;5.67;5.17;;;16.70;99.90;;;;;;8389719;28;20181;-66
2023/08/05 17:23:05;;;;;;;6.80;5.87;;;16.70;99.90;;;;;;8389104;28;20215;-66
2023/08/05 17:27:06;;;;;;;6.80;6.10;;;16.70;56.40;;;;;;8387236;28;20188;-65
2023/08/05 17:31:07;;;;;;;8.17;7.33;;;16.60;99.50;;;;;;8384815;28;20191;-65
2023/08/05 17:35:08;;;;;;;9.43;8.03;;;16.60;99.90;;;;;;8392607;28;20208;-65
2023/08/05 17:39:09;;;;;;;8.37;7.47;;;16.60;5.30;;;;;;8382573;28;20184;-66
2023/08/05 17:43:10;;;;;;;10.67;7.47;;;16.60;99.90;;;;;;8389572;28;20193;-67
2023/08/05 17:47:11;;;;;;;8.03;7.27;;;16.60;99.90;;;;;;8385570;28;20266;-65
2023/08/05 17:51:12;;;;;;;10.13;8.60;;;16.50;99.90;;;;;;8384589;28;20235;-65
2023/08/05 17:55:13;;;;;;;9.33;7.73;;;16.50;99.90;;;;;;8389698;28;20214;-66
2023/08/05 17:59:15;;;;;;;17.07;11.50;;;16.50;99.90;;;;;;8389070;28;20181;-64
2023/08/05 18:03:16;;;;;;;8.67;7.80;;;16.50;99.90;;;;;;8382969;28;20230;-64
2023/08/05 18:07:17;;;;;;;10.60;9.07;;;16.50;99.90;;;;;;8386726;28;20311;-64
2023/08/05 18:11:19;;;;;;;8.80;7.30;;;16.50;99.90;;;;;;8383530;28;20501;-65
2023/08/05 18:15:19;;;;;;;8.30;7.57;;;16.40;99.90;;;;;;8386397;28;20188;-65
2023/08/05 18:19:20;;;;;;;6.97;6.37;;;16.40;99.90;;;;;;8388835;28;20173;-65
2023/08/05 18:23:21;;;;;;;7.37;6.67;;;16.30;99.90;;;;;;8387881;28;20216;-66
2023/08/05 18:27:22;;;;;;;7.67;7.03;;;16.30;99.90;;;;;;8385047;28;20192;-65
2023/08/05 18:31:23;;;;;;;7.83;7.13;;;16.20;99.90;;;;;;8377976;28;20184;-65
2023/08/05 18:35:24;;;;;;;10.60;9.60;;;16.20;99.90;;;;;;8394294;28;20207;-66
2023/08/05 18:39:24;;;;;;;12.57;11.50;;;16.10;99.90;;;;;;8386807;28;20192;-66
2023/08/05 18:43:25;;;;;;;16.10;14.50;;;16.10;99.90;;;;;;8386872;28;20196;-66
2023/08/05 18:47:26;;;;;;;13.03;11.00;;;16.00;99.90;;;;;;8381654;28;20620;-66
2023/08/05 18:51:27;;;;;;;12.00;9.30;;;16.00;99.90;;;;;;8386491;28;20181;-66
2023/08/05 18:55:28;;;;;;;7.90;7.10;;;16.00;99.90;;;;;;8384296;28;20220;-67
2023/08/05 18:59:28;;;;;;;9.03;8.10;;;16.00;99.90;;;;;;8385667;28;20184;-63
2023/08/05 19:03:32;;;;;;;8.53;7.73;;;15.90;99.90;;;;;;8392628;28;20226;-64
2023/08/05 19:07:32;;;;;;;9.30;8.40;;;15.90;99.90;;;;;;8393272;28;20275;-64
2023/08/05 19:11:34;;;;;;;10.17;9.17;;;15.80;99.90;;;;;;8399345;28;20196;-63
2023/08/05 19:15:34;;;;;;;6.33;5.83;;;15.80;99.90;;;;;;8397026;28;20196;-64
2023/08/05 19:19:37;;;;;;;7.50;6.03;;;15.70;99.90;;;;;;8400375;28;20177;-64
2023/08/05 19:23:38;;;;;;;8.63;7.73;;;15.70;99.90;;;;;;8394075;28;20181;-64
2023/08/05 19:27:39;;;;;;;9.07;7.73;;;15.60;99.90;;;;;;8394436;28;20185;-64
2023/08/05 19:31:40;;;;;;;8.87;8.07;;;15.60;99.90;;;;;;8391406;28;20185;-65
2023/08/05 19:35:41;;;;;;;9.30;8.40;;;15.60;99.90;;;;;;8397344;28;20220;-65
2023/08/05 19:39:42;;;;;;;8.30;7.50;;;15.50;99.90;;;;;;8395684;28;20484;-65
2023/08/05 19:43:43;;;;;;;7.80;7.00;;;15.50;99.90;;;;;;8399106;28;20279;-64
2023/08/05 19:47:44;;;;;;;8.87;7.50;;;15.40;99.90;;;;;;8395531;28;20691;-64
2023/08/05 19:51:45;;;;;;;9.37;8.57;;;15.40;99.90;;;;;;8401032;28;20192;-66
2023/08/05 19:55:45;;;;;;;10.07;9.13;;;15.40;99.90;;;;;;8399889;28;20204;-63
2023/08/05 19:59:46;;;;;;;10.10;9.10;;;15.40;99.90;;;;;;8398296;28;20180;-64
2023/08/05 20:03:47;;;;;;;9.47;8.67;;;15.50;99.90;;;;;;8405058;28;20177;-63
2023/08/05 20:07:48;;;;;;;10.10;9.10;;;15.50;99.90;;;;;;8398001;28;20184;-65
2023/08/05 20:11:49;;;;;;;9.50;8.70;;;15.50;99.90;;;;;;8392910;28;20213;-65
2023/08/05 20:15:56;;;;;;;10.20;9.20;;;15.50;99.90;;;;;;8394657;28;20193;-63
2023/08/05 20:19:57;;;;;;;11.50;10.40;;;15.50;99.90;;;;;;8394234;28;20188;-62
2023/08/05 20:23:58;;;;;;;11.23;10.00;;;15.50;99.90;;;;;;8393171;28;20185;-63
2023/08/05 20:27:59;;;;;;;11.10;10.07;;;15.40;99.90;;;;;;8395707;28;20192;-63
2023/08/05 20:31:59;;;;;;;12.10;10.53;;;15.40;99.90;;;;;;8395870;28;20180;-62
2023/08/05 20:36:00;;;;;;;12.23;11.00;;;15.40;99.90;;;;;;8395752;28;20204;-63
2023/08/05 20:40:05;;;;;;;11.57;10.47;;;15.50;99.90;;;;;;8397572;28;20704;-67
2023/08/05 20:44:05;;;;;;;13.27;12.00;;;15.40;99.90;;;;;;8394856;28;20193;-65
2023/08/05 20:48:06;;;;;;;12.10;11.00;;;15.40;99.90;;;;;;8396114;28;20184;-65
2023/08/05 20:52:08;;;;;;;11.67;10.43;;;15.30;99.90;;;;;;8398402;28;20207;-66
2023/08/05 20:56:09;;;;;;;11.30;10.20;;;15.30;99.90;;;;;;8398151;28;20213;-65
2023/08/05 21:00:11;;;;;;;9.50;8.60;;;15.30;99.90;;;;;;8397800;28;20189;-66